Startpagina
METAR-TAF:

METAR-TAF

Vliegvelden :

Luchthaven Damascus

Damascus, Syrië

breedte: 33-25N, lengte: 036-31E, hoogte: 608 m

Actueel weer

Dit bericht is 5 minuten geleden gemaakt, om 21:00 UTC
Wind 4 kt uit het zuiden
Temperatuur 23°C
Vochtigheid 29%
Druk 1016 hPa
Zicht 10 km of meer
geen wolken onder 1500 m en geen cumulonimbus

METAR: OSDI 222100Z 19004KT CAVOK 23/04 Q1016

Tijdstip: 00:05 (21:05 UTC)

Verwachting

Verwachting geldig van 22 om 18 UTC tot 23 om 24 UTC
Wind 10 kt uit het zuidzuidwesten
Zicht: 8000 m
Weinig wolken op 3000 ft
Tijdelijke
van 23 om 12 UTC tot 23 om 16 UTC
Wind 15 kt uit het westzuidwesten met uitschieters tot 25 kt

TAF: OSDI 2218/2324 21010KT 8000 FEW030 TEMPO 2312/2316 24015G25KT

Waarnemingen en weersverwachtingen van meer dan 4000 vliegvelden (METAR en TAF).

De beschikbare stations zijn de gele en rode punten op de kaart.

Ga met uw muis naar het station om de naam te zien.

Klik dan om waarnemingen en weersverwachtingen te zien.

kaart wijzigen: klik op de groene knoppen met een zwart kruis om in te zoomen, op de groene knop met een streepje om uit te zoomen of op de groene pijlen voor aangrenzende kaarten.


METAR-TAF: